Time;durP1;ratioP1;P1;durP2;ratioP2;P2;SDS_P1;SDS_P2;PMS_P1;PMS_P2;Temp;Humidity;BMP_temperature;BMP_pressure;BME280_temperature;BME280_humidity;BME280_pressure;Samples;Min_cycle;Max_cycle;Signal;HPM_P1;HPM_P2
2022/02/05 00:03:09;;;;;;;16.00;2.40;;;4.40;99.90;;;;;;5113935;28;20050;-52
2022/02/05 00:06:04;;;;;;;15.50;2.45;;;4.30;99.90;;;;;;5113480;28;20044;-52
2022/02/05 00:38:14;;;;;;;18.08;3.42;;;4.30;99.90;;;;;;5112810;28;20474;-53
2022/02/05 00:41:26;;;;;;;16.23;2.42;;;4.30;99.90;;;;;;5112699;28;20047;-53
2022/02/05 00:43:58;;;;;;;13.43;2.42;;;4.30;99.90;;;;;;5112277;27;20043;-54
2022/02/05 00:46:27;;;;;;;8.68;2.33;;;4.40;99.90;;;;;;5094481;28;20099;-50
2022/02/05 00:48:53;;;;;;;12.38;2.80;;;4.40;99.90;;;;;;5113144;28;20455;-54
2022/02/05 00:51:25;;;;;;;16.52;2.50;;;4.40;99.90;;;;;;5112613;28;20482;-54
2022/02/05 00:54:02;;;;;;;15.50;2.22;;;4.50;99.90;;;;;;5112533;28;20032;-54
2022/02/05 00:59:13;;;;;;;18.10;2.70;;;4.50;99.90;;;;;;5112583;28;20088;-53
2022/02/05 01:01:40;;;;;;;15.43;2.75;;;4.50;99.90;;;;;;5112499;28;20424;-53
2022/02/05 01:04:06;;;;;;;11.98;2.08;;;4.50;99.90;;;;;;5094082;28;20115;-52
2022/02/05 01:06:32;;;;;;;12.07;2.53;;;4.50;99.90;;;;;;5112431;28;20110;-53
2022/02/05 01:08:58;;;;;;;21.13;3.53;;;4.50;99.90;;;;;;5112594;28;20440;-52
2022/02/05 01:11:24;;;;;;;14.82;2.80;;;4.50;99.90;;;;;;5094383;28;20027;-52
2022/02/05 01:13:51;;;;;;;18.13;3.05;;;4.50;99.90;;;;;;5112399;28;20039;-52
2022/02/05 01:16:25;;;;;;;15.70;3.42;;;4.40;99.90;;;;;;5112168;28;20482;-54
2022/02/05 01:18:51;;;;;;;18.13;3.15;;;4.30;99.90;;;;;;5112251;28;20039;-53
2022/02/05 01:21:40;;;;;;;14.85;3.65;;;4.60;99.90;;;;;;5112367;28;20042;-52
2022/02/05 01:24:08;;;;;;;17.00;3.17;;;4.50;99.90;;;;;;5111916;28;20058;-52
2022/02/05 01:26:40;;;;;;;15.15;3.30;;;4.60;99.90;;;;;;5112556;28;20124;-51
2022/02/05 01:29:35;;;;;;;18.67;2.70;;;4.60;99.90;;;;;;5112055;28;20051;-52
2022/02/05 01:31:58;;;;;;;15.38;3.30;;;4.50;99.90;;;;;;5110964;28;20057;-54
2022/02/05 01:34:33;;;;;;;18.42;2.72;;;4.40;99.90;;;;;;5112052;28;20141;-54
2022/02/05 01:53:37;;;;;;;;;;;4.40;99.90;;;;;;5069741;28;20475;-53
2022/02/05 01:56:24;;;;;;;20.88;3.75;;;4.40;99.90;;;;;;5070886;28;19963;-53
2022/02/05 02:07:06;;;;;;;20.38;3.00;;;4.40;99.90;;;;;;5073009;28;20036;-54
2022/02/05 02:12:11;;;;;;;23.52;3.20;;;4.60;99.90;;;;;;5073056;28;20051;-51
2022/02/05 02:20:27;;;;;;;16.90;2.65;;;4.60;99.90;;;;;;5067964;28;20087;-53
2022/02/05 02:25:52;;;;;;;16.10;2.67;;;4.50;99.90;;;;;;5072653;28;20402;-53
2022/02/05 02:28:25;;;;;;;19.92;3.25;;;4.50;99.90;;;;;;5072489;28;20040;-53
2022/02/05 02:31:02;;;;;;;19.27;2.60;;;4.50;99.90;;;;;;5072458;28;20052;-52
2022/02/05 02:33:33;;;;;;;22.23;4.85;;;4.50;99.90;;;;;;5072393;28;20052;-52
2022/02/05 02:35:59;;;;;;;14.75;3.40;;;4.40;99.90;;;;;;5072522;28;20044;-53
2022/02/05 02:38:33;;;;;;;18.00;2.95;;;4.30;99.90;;;;;;5055571;28;20517;-54
2022/02/05 02:41:05;;;;;;;16.75;2.45;;;4.30;99.90;;;;;;5072209;28;20486;-52
2022/02/05 02:43:32;;;;;;;18.08;2.70;;;4.30;99.90;;;;;;5072396;28;20057;-52
2022/02/05 02:45:58;;;;;;;18.58;3.38;;;4.20;99.90;;;;;;5072176;28;20051;-52
2022/02/05 02:48:24;;;;;;;21.42;2.75;;;4.10;99.90;;;;;;5072179;28;20044;-53
2022/02/05 02:56:49;;;;;;;15.52;3.17;;;4.20;99.90;;;;;;5077895;28;20383;-53
2022/02/05 02:59:25;;;;;;;18.08;3.20;;;4.20;99.90;;;;;;5114882;28;20071;-53
2022/02/05 03:02:01;;;;;;;25.35;3.35;;;4.20;99.90;;;;;;5114902;28;20092;-54
2022/02/05 03:04:27;;;;;;;22.55;3.42;;;4.30;99.90;;;;;;5114672;28;20110;-54
2022/02/05 03:06:53;;;;;;;18.45;2.78;;;4.20;99.90;;;;;;5113896;28;20446;-53
2022/02/05 03:09:20;;;;;;;17.55;2.78;;;4.20;99.90;;;;;;5114529;28;20070;-52
2022/02/05 03:11:46;;;;;;;19.52;3.45;;;4.10;99.90;;;;;;5114643;28;20107;-53
2022/02/05 03:14:12;;;;;;;16.90;3.65;;;4.20;99.90;;;;;;5114673;28;20040;-54
2022/02/05 03:16:38;;;;;;;17.35;3.13;;;4.20;99.90;;;;;;5114577;28;20176;-51
2022/02/05 03:21:32;;;;;;;22.58;2.85;;;4.20;99.90;;;;;;5114348;28;20040;-53
2022/02/05 03:23:58;;;;;;;13.05;2.13;;;4.20;99.90;;;;;;5114368;28;20160;-51
2022/02/05 03:26:23;;;;;;;19.90;3.00;;;4.20;99.90;;;;;;5114192;28;20397;-54
2022/02/05 03:28:49;;;;;;;19.98;3.42;;;4.10;99.90;;;;;;5114331;28;20032;-54
2022/02/05 03:31:14;;;;;;;18.08;2.80;;;4.20;99.90;;;;;;5114274;28;20504;-52
2022/02/05 03:33:40;;;;;;;15.48;3.03;;;4.10;99.90;;;;;;5114145;28;20107;-54
2022/02/05 03:36:06;;;;;;;21.08;3.30;;;4.10;99.90;;;;;;5096097;28;20405;-54
2022/02/05 03:38:31;;;;;;;16.95;4.00;;;4.10;99.90;;;;;;5114257;28;20462;-54
2022/02/05 03:40:57;;;;;;;16.05;2.70;;;4.00;99.90;;;;;;5114300;28;20077;-54
2022/02/05 03:43:22;;;;;;;16.05;3.95;;;4.00;99.90;;;;;;5113993;28;20396;-53
2022/02/05 03:45:48;;;;;;;16.10;2.45;;;4.00;99.90;;;;;;5113688;28;20043;-53
2022/02/05 03:48:14;;;;;;;20.05;3.25;;;4.00;99.90;;;;;;5113872;28;20114;-52
2022/02/05 03:50:39;;;;;;;17.55;2.58;;;4.00;99.90;;;;;;5113646;28;20039;-54
2022/02/05 03:53:06;;;;;;;17.15;3.80;;;4.00;99.90;;;;;;5113632;28;20131;-52
2022/02/05 03:55:32;;;;;;;17.48;2.67;;;4.00;99.90;;;;;;5095143;28;20052;-51
2022/02/05 03:57:58;;;;;;;15.43;2.90;;;3.90;99.90;;;;;;5113700;28;20082;-51
2022/02/05 04:00:24;;;;;;;17.48;3.38;;;3.90;99.90;;;;;;5113631;28;20075;-53
2022/02/05 04:02:50;;;;;;;23.15;3.22;;;4.00;99.90;;;;;;5113527;28;20063;-53
2022/02/05 04:05:16;;;;;;;20.75;2.83;;;3.90;99.90;;;;;;5113294;28;20105;-54
2022/02/05 04:07:45;;;;;;;13.80;2.28;;;3.90;99.90;;;;;;5113358;28;20489;-50
2022/02/05 04:10:15;;;;;;;;;;;3.90;99.90;;;;;;5095588;28;20039;-52
2022/02/05 04:18:11;;;;;;;13.77;2.08;;;3.80;99.90;;;;;;5113442;28;20043;-49
2022/02/05 04:20:39;;;;;;;15.98;3.45;;;3.80;99.90;;;;;;5113329;28;20062;-50
2022/02/05 04:23:04;;;;;;;11.15;2.15;;;3.90;99.90;;;;;;5113232;28;20036;-47
2022/02/05 04:25:30;;;;;;;12.75;2.17;;;3.90;99.90;;;;;;5112946;28;20044;-51
2022/02/05 04:27:56;;;;;;;19.00;3.47;;;3.90;99.90;;;;;;5113454;28;20035;-51
2022/02/05 04:30:22;;;;;;;15.13;2.30;;;3.80;99.90;;;;;;5113330;28;20038;-51
2022/02/05 04:32:49;;;;;;;15.23;2.70;;;3.70;99.90;;;;;;5113194;28;20053;-50
2022/02/05 04:35:15;;;;;;;16.90;2.50;;;3.70;99.90;;;;;;5094939;28;20497;-52
2022/02/05 04:37:41;;;;;;;18.83;2.85;;;3.70;99.90;;;;;;5113227;28;20162;-50
2022/02/05 04:40:23;;;;;;;9.77;1.80;;;3.80;99.90;;;;;;5113006;28;20443;-49
2022/02/05 04:43:10;;;;;;;10.57;2.33;;;3.70;99.90;;;;;;5112718;28;20043;-50
2022/02/05 05:01:36;;;;;;;13.15;3.85;;;3.60;99.90;;;;;;5112434;28;20040;-51
2022/02/05 05:09:27;;;;;;;17.15;2.60;;;3.60;99.90;;;;;;5112533;28;20379;-51
2022/02/05 05:12:20;;;;;;;11.10;2.50;;;3.60;99.90;;;;;;5112205;28;20039;-52
2022/02/05 05:20:14;;;;;;;11.93;1.85;;;3.50;99.90;;;;;;5112172;28;20047;-51
2022/02/05 05:22:40;;;;;;;10.43;1.95;;;3.50;99.90;;;;;;5112437;28;20393;-51
2022/02/05 05:25:06;;;;;;;13.98;2.08;;;3.50;99.90;;;;;;5112262;28;20048;-51
2022/02/05 05:27:32;;;;;;;14.20;2.50;;;3.50;99.90;;;;;;5112177;28;20042;-53
2022/02/05 05:29:59;;;;;;;12.45;2.10;;;3.50;99.90;;;;;;5113033;28;20036;-52
2022/02/05 05:32:25;;;;;;;17.45;2.22;;;3.50;99.90;;;;;;5119040;28;20111;-52
2022/02/05 05:34:50;;;;;;;16.60;2.42;;;3.40;99.90;;;;;;5118873;28;20047;-53
2022/02/05 05:37:20;;;;;;;14.18;2.45;;;3.40;99.90;;;;;;5118889;28;20040;-53
2022/02/05 05:39:48;;;;;;;18.35;2.70;;;3.40;99.90;;;;;;5119119;28;20055;-51
2022/02/05 05:42:20;;;;;;;14.23;2.60;;;3.40;99.90;;;;;;5118976;28;20050;-53
2022/02/05 05:47:35;;;;;;;12.30;2.22;;;3.40;99.90;;;;;;5100547;28;20431;-53
2022/02/05 05:52:30;;;;;;;13.60;2.30;;;3.40;99.90;;;;;;5118975;28;20050;-54
2022/02/05 05:54:56;;;;;;;15.65;3.15;;;3.30;99.90;;;;;;5118596;28;20063;-53
2022/02/05 05:57:22;;;;;;;15.85;3.15;;;3.20;99.90;;;;;;5118711;28;20489;-53
2022/02/05 05:59:47;;;;;;;17.92;2.50;;;3.20;99.90;;;;;;5118607;28;20035;-53
2022/02/05 06:02:13;;;;;;;13.93;2.97;;;3.30;99.90;;;;;;5118658;28;20048;-53
2022/02/05 06:04:39;;;;;;;16.75;2.30;;;3.20;99.90;;;;;;5118752;28;20172;-51
2022/02/05 06:07:05;;;;;;;9.25;2.45;;;3.10;99.90;;;;;;5118664;28;20035;-53
2022/02/05 06:09:32;;;;;;;14.00;3.08;;;3.10;99.90;;;;;;5118658;28;20039;-53
2022/02/05 06:11:58;;;;;;;14.27;2.50;;;3.20;99.90;;;;;;5118663;28;20081;-53
2022/02/05 06:14:26;;;;;;;15.48;2.72;;;3.00;99.90;;;;;;5118363;28;20035;-53
2022/02/05 06:16:58;;;;;;;15.18;3.05;;;3.10;99.90;;;;;;5118523;28;20040;-54
2022/02/05 06:19:24;;;;;;;23.63;3.20;;;3.00;99.90;;;;;;5118586;28;20046;-50
2022/02/05 06:21:50;;;;;;;19.80;2.65;;;3.00;99.90;;;;;;5118721;28;20382;-53
2022/02/05 06:24:15;;;;;;;13.05;2.80;;;3.10;99.90;;;;;;5118411;28;20040;-53
2022/02/05 06:26:41;;;;;;;15.05;2.38;;;3.10;99.90;;;;;;5118464;28;20089;-53
2022/02/05 06:29:06;;;;;;;16.80;2.80;;;3.30;99.90;;;;;;5118372;28;20403;-52
2022/02/05 06:31:32;;;;;;;14.15;2.80;;;3.20;99.90;;;;;;5118561;28;20042;-52
2022/02/05 06:33:58;;;;;;;17.70;3.13;;;3.30;99.90;;;;;;5118571;28;20440;-52
2022/02/05 06:36:24;;;;;;;14.23;1.92;;;3.30;99.90;;;;;;5118394;28;20039;-51
2022/02/05 06:38:49;;;;;;;15.45;2.45;;;3.20;99.90;;;;;;5118468;28;20040;-53
2022/02/05 06:41:15;;;;;;;12.10;2.75;;;3.20;99.90;;;;;;5118003;28;20073;-53
2022/02/05 06:43:41;;;;;;;10.35;1.83;;;3.20;99.90;;;;;;5114711;28;20043;-52
2022/02/05 06:46:07;;;;;;;15.38;2.08;;;3.10;99.90;;;;;;5115218;28;20039;-53
2022/02/05 06:48:34;;;;;;;15.25;2.17;;;3.10;99.90;;;;;;5115316;28;20035;-52
2022/02/05 06:51:00;;;;;;;15.88;2.40;;;3.20;99.90;;;;;;5115190;28;20130;-53
2022/02/05 06:53:26;;;;;;;15.15;1.95;;;3.20;99.90;;;;;;5114884;28;20123;-50
2022/02/05 06:55:52;;;;;;;14.27;2.45;;;3.10;99.90;;;;;;5114752;28;20053;-53
2022/02/05 06:58:17;;;;;;;11.13;2.20;;;3.20;99.90;;;;;;5114629;28;20456;-53
2022/02/05 07:00:43;;;;;;;23.17;3.15;;;3.10;99.90;;;;;;5114658;28;20394;-53
2022/02/05 07:03:11;;;;;;;17.88;2.65;;;3.10;99.90;;;;;;5114711;28;20123;-53
2022/02/05 07:05:37;;;;;;;15.30;2.90;;;3.20;99.90;;;;;;5114599;28;20038;-51
2022/02/05 07:08:03;;;;;;;17.25;2.92;;;3.30;99.90;;;;;;5114642;28;20028;-53
2022/02/05 07:10:28;;;;;;;12.75;2.50;;;3.30;99.90;;;;;;5114560;28;20069;-52
2022/02/05 07:15:27;;;;;;;12.18;2.80;;;3.30;99.90;;;;;;5114669;28;20086;-51
2022/02/05 07:18:07;;;;;;;16.70;2.35;;;3.30;99.90;;;;;;5114496;28;20444;-52
2022/02/05 07:31:15;;;;;;;11.75;2.35;;;3.30;99.90;;;;;;5031480;28;20073;-49
2022/02/05 07:33:41;;;;;;;15.00;2.63;;;3.30;99.90;;;;;;5031333;28;20049;-53
2022/02/05 07:36:08;;;;;;;17.52;2.40;;;3.40;99.90;;;;;;5031306;28;20056;-52
2022/02/05 07:38:33;;;;;;;15.35;2.60;;;3.40;99.90;;;;;;5031446;28;20053;-52
2022/02/05 07:40:59;;;;;;;16.60;2.63;;;3.40;99.90;;;;;;5031329;28;20052;-52
2022/02/05 07:43:34;;;;;;;19.20;3.10;;;3.50;99.90;;;;;;5031244;28;20060;-52
2022/02/05 07:46:00;;;;;;;21.08;2.55;;;3.50;99.90;;;;;;5031393;28;20618;-53
2022/02/05 07:48:26;;;;;;;13.40;2.03;;;3.60;99.90;;;;;;5031265;28;20220;-52
2022/02/05 07:50:52;;;;;;;13.75;2.22;;;3.60;99.90;;;;;;5031384;28;20128;-52
2022/02/05 07:53:18;;;;;;;14.82;2.70;;;3.70;99.90;;;;;;5014395;28;20528;-53
2022/02/05 07:55:44;;;;;;;10.27;2.60;;;3.80;99.90;;;;;;5030900;28;20053;-54
2022/02/05 07:58:09;;;;;;;16.63;2.35;;;3.90;99.90;;;;;;5030875;28;20057;-52
2022/02/05 08:00:35;;;;;;;18.33;2.35;;;4.00;99.90;;;;;;5031068;28;20447;-53
2022/02/05 08:03:01;;;;;;;10.55;2.33;;;4.00;99.90;;;;;;5030821;28;20471;-52
2022/02/05 08:05:27;;;;;;;11.10;1.92;;;4.10;99.90;;;;;;5081920;28;20079;-51
2022/02/05 08:07:53;;;;;;;20.35;2.20;;;4.10;99.90;;;;;;5113508;28;20039;-53
2022/02/05 08:10:21;;;;;;;14.38;2.33;;;4.20;99.90;;;;;;5113470;28;20041;-54
2022/02/05 08:12:53;;;;;;;18.83;2.83;;;4.20;99.90;;;;;;5113483;28;20071;-53
2022/02/05 08:15:22;;;;;;;24.95;3.17;;;4.20;99.90;;;;;;5113491;28;20122;-53
2022/02/05 08:17:49;;;;;;;19.75;3.20;;;4.20;99.90;;;;;;5113527;28;20043;-52
2022/02/05 08:20:15;;;;;;;17.00;2.70;;;4.20;99.90;;;;;;5113171;28;20045;-54
2022/02/05 08:22:41;;;;;;;16.60;2.92;;;4.20;99.90;;;;;;5113304;28;20040;-52
2022/02/05 08:25:07;;;;;;;23.17;3.08;;;4.30;99.90;;;;;;5113099;28;20123;-52
2022/02/05 08:27:33;;;;;;;21.17;2.97;;;4.50;99.90;;;;;;5094754;28;20097;-53
2022/02/05 08:30:03;;;;;;;16.20;2.78;;;4.60;99.90;;;;;;5112900;28;20039;-53
2022/02/05 08:32:29;;;;;;;20.45;3.17;;;4.80;99.90;;;;;;5113117;28;20039;-54
2022/02/05 08:35:00;;;;;;;14.55;2.35;;;4.90;99.90;;;;;;5094982;28;20127;-53
2022/02/05 08:37:26;;;;;;;16.35;3.40;;;5.00;99.90;;;;;;5113254;28;20513;-53
2022/02/05 08:39:52;;;;;;;17.50;3.45;;;5.20;99.90;;;;;;5112961;28;20075;-54
2022/02/05 08:42:18;;;;;;;14.20;3.00;;;5.30;99.90;;;;;;5112757;28;20082;-54
2022/02/05 08:44:43;;;;;;;16.55;3.67;;;5.30;99.90;;;;;;5112598;28;20044;-54
2022/02/05 08:47:09;;;;;;;11.55;2.25;;;5.40;99.90;;;;;;5112720;28;20043;-54
2022/02/05 08:49:35;;;;;;;17.08;3.03;;;5.50;99.90;;;;;;5112791;28;20122;-54
2022/02/05 08:52:05;;;;;;;17.73;4.30;;;5.50;99.90;;;;;;5112674;28;20036;-54
2022/02/05 08:54:31;;;;;;;15.45;3.63;;;5.60;99.90;;;;;;5094015;28;20108;-54
2022/02/05 08:56:58;;;;;;;15.25;3.35;;;5.70;99.90;;;;;;5112390;28;20048;-54
2022/02/05 08:59:26;;;;;;;18.15;3.30;;;5.90;99.90;;;;;;5112663;28;20386;-54
2022/02/05 09:02:00;;;;;;;18.35;3.78;;;6.10;99.90;;;;;;5112413;28;20039;-54
2022/02/05 09:07:10;;;;;;;17.45;3.35;;;6.30;99.90;;;;;;5112423;28;20039;-54
2022/02/05 09:09:49;;;;;;;17.00;3.53;;;6.30;99.90;;;;;;5112352;28;20043;-53
2022/02/05 09:12:32;;;;;;;24.35;3.05;;;6.50;99.90;;;;;;5112618;28;20050;-54
2022/02/05 09:14:58;;;;;;;22.67;3.42;;;6.50;99.90;;;;;;5094306;28;20489;-54
2022/02/05 09:17:24;;;;;;;21.35;3.20;;;6.70;99.90;;;;;;5112252;28;20100;-54
2022/02/05 09:19:50;;;;;;;15.90;2.47;;;6.70;99.90;;;;;;5112388;28;20035;-54
2022/02/05 09:22:16;;;;;;;18.17;4.25;;;6.80;99.90;;;;;;5112211;28;20408;-52
2022/02/05 09:24:42;;;;;;;26.35;4.93;;;6.80;99.90;;;;;;5112367;28;20130;-54
2022/02/05 09:27:12;;;;;;;15.52;3.33;;;6.70;99.90;;;;;;5112561;28;20146;-53
2022/02/05 09:30:00;;;;;;;20.50;3.70;;;6.70;99.90;;;;;;5112077;28;20047;-53
2022/02/05 09:32:24;;;;;;;23.20;4.47;;;6.60;99.90;;;;;;5111743;28;20489;-53
2022/02/05 09:34:50;;;;;;;19.45;3.03;;;6.50;99.90;;;;;;5112502;28;20058;-53
2022/02/05 09:37:16;;;;;;;23.92;3.90;;;6.40;99.90;;;;;;5112043;28;20040;-52
2022/02/05 09:39:43;;;;;;;22.83;4.13;;;6.40;99.90;;;;;;5112278;28;20120;-51
2022/02/05 09:42:11;;;;;;;15.95;2.72;;;6.30;99.90;;;;;;5112087;28;20071;-52
2022/02/05 09:44:37;;;;;;;21.92;3.90;;;6.30;99.90;;;;;;5111958;28;20100;-54
2022/02/05 09:47:03;;;;;;;15.70;3.58;;;6.30;99.90;;;;;;5111879;28;20443;-54
2022/02/05 09:49:29;;;;;;;18.77;3.30;;;6.30;99.90;;;;;;5112107;28;20042;-53
2022/02/05 09:52:07;;;;;;;21.60;3.40;;;6.30;99.90;;;;;;5112123;28;20417;-54
2022/02/05 09:54:34;;;;;;;17.08;3.40;;;6.40;99.90;;;;;;5111973;28;20056;-51
2022/02/05 09:57:00;;;;;;;24.23;4.30;;;6.50;99.90;;;;;;5111808;28;20054;-53
2022/02/05 09:59:26;;;;;;;17.52;2.95;;;6.50;99.90;;;;;;5111752;28;20436;-52
2022/02/05 10:02:17;;;;;;;20.23;3.22;;;6.50;99.90;;;;;;5112152;28;20050;-52
2022/02/05 10:05:15;;;;;;;14.55;2.80;;;6.50;99.90;;;;;;5112028;28;20173;-52
2022/02/05 10:07:56;;;;;;;19.90;3.65;;;6.60;99.90;;;;;;5111827;28;20043;-54
2022/02/05 10:10:22;;;;;;;14.13;4.63;;;6.70;99.90;;;;;;5111675;28;20043;-52
2022/02/05 10:13:06;;;;;;;14.43;2.60;;;6.80;99.90;;;;;;5111759;28;20040;-53
2022/02/05 10:15:33;;;;;;;20.80;3.42;;;6.80;99.90;;;;;;5111612;28;20454;-54
2022/02/05 10:17:59;;;;;;;18.50;3.60;;;6.90;99.90;;;;;;5114942;28;20050;-51
2022/02/05 10:20:25;;;;;;;25.50;3.42;;;7.00;99.90;;;;;;5115725;28;20040;-53
2022/02/05 10:22:52;;;;;;;15.68;2.88;;;7.00;99.90;;;;;;5115805;28;20084;-61
2022/02/05 10:25:19;;;;;;;22.40;3.75;;;7.00;99.90;;;;;;5115714;28;20039;-60
2022/02/05 10:27:47;;;;;;;15.00;2.97;;;7.00;99.90;;;;;;5116442;28;20035;-60
2022/02/05 10:30:22;;;;;;;15.88;3.58;;;6.80;99.90;;;;;;5115903;28;20367;-60
2022/02/05 10:33:16;;;;;;;17.00;3.53;;;6.80;99.90;;;;;;5115373;28;20069;-60
2022/02/05 10:36:25;;;;;;;21.45;4.03;;;6.80;99.90;;;;;;5116046;28;20389;-60
2022/02/05 10:44:39;;;;;;;19.83;3.97;;;6.80;99.90;;;;;;5052510;28;20369;-61
2022/02/05 10:47:05;;;;;;;22.48;5.05;;;6.80;99.90;;;;;;5033707;28;20052;-61
2022/02/05 10:49:37;;;;;;;19.38;2.70;;;6.80;99.90;;;;;;5052209;28;20049;-61
2022/02/05 10:52:03;;;;;;;17.48;2.78;;;6.80;99.90;;;;;;5052506;28;20102;-60
2022/02/05 10:54:44;;;;;;;13.60;3.20;;;6.80;99.90;;;;;;5052629;28;20045;-60
2022/02/05 10:57:17;;;;;;;17.30;2.88;;;6.70;99.90;;;;;;5052515;28;20112;-60
2022/02/05 11:05:12;;;;;;;11.25;3.08;;;6.80;99.90;;;;;;5052705;28;20056;-61
2022/02/05 11:05:42;;;;;;;13.38;2.50;;;6.70;99.90;;;;;;5052605;28;20061;-61
2022/02/05 11:08:10;;;;;;;16.13;4.32;;;6.60;99.90;;;;;;5051740;28;20052;-61
2022/02/05 11:10:57;;;;;;;16.63;4.18;;;6.70;99.90;;;;;;5051777;28;20118;-61
2022/02/05 11:18:57;;;;;;;14.70;2.95;;;6.80;99.90;;;;;;5109472;28;20051;-61
2022/02/05 11:21:26;;;;;;;21.65;3.13;;;6.80;99.90;;;;;;5115031;28;20055;-61
2022/02/05 11:23:57;;;;;;;16.83;2.53;;;6.70;99.90;;;;;;5115003;28;20035;-61
2022/02/05 11:26:23;;;;;;;24.27;4.35;;;6.80;99.90;;;;;;5114579;28;20123;-62
2022/02/05 11:28:54;;;;;;;17.45;2.85;;;6.70;99.90;;;;;;5114085;28;20111;-62
2022/02/05 11:31:34;;;;;;;20.27;2.97;;;6.60;99.90;;;;;;5114532;28;20028;-59
2022/02/05 11:34:33;;;;;;;15.48;2.80;;;6.60;99.90;;;;;;5114716;28;20040;-59
2022/02/05 11:37:05;;;;;;;22.25;3.47;;;6.70;99.90;;;;;;5114634;28;20894;-59
2022/02/05 11:39:51;;;;;;;15.60;3.55;;;6.70;99.90;;;;;;5114088;28;20136;-59
2022/02/05 11:42:29;;;;;;;14.23;3.65;;;6.70;99.90;;;;;;5114282;28;20057;-59
2022/02/05 11:45:01;;;;;;;15.73;2.92;;;6.70;99.90;;;;;;5114020;28;20044;-59
2022/02/05 11:47:29;;;;;;;20.17;3.38;;;6.70;99.90;;;;;;5114154;28;20036;-59
2022/02/05 11:49:57;;;;;;;14.15;3.20;;;6.70;99.90;;;;;;5114301;28;20027;-59
2022/02/05 11:52:39;;;;;;;16.25;3.20;;;6.70;99.90;;;;;;5114428;28;20035;-58
2022/02/05 11:55:07;;;;;;;12.90;2.55;;;6.70;99.90;;;;;;5113816;28;20083;-59
2022/02/05 11:57:42;;;;;;;22.65;3.28;;;6.60;99.90;;;;;;5113722;28;20031;-58
2022/02/05 12:00:10;;;;;;;22.10;3.20;;;6.70;99.90;;;;;;5113779;28;20400;-60
2022/02/05 12:02:45;;;;;;;16.20;2.65;;;6.70;99.90;;;;;;5113461;28;20490;-59
2022/02/05 12:05:25;;;;;;;14.45;2.45;;;6.70;99.90;;;;;;5113965;28;20410;-59
2022/02/05 12:08:06;;;;;;;18.30;3.25;;;6.70;99.90;;;;;;5113557;28;20046;-58
2022/02/05 12:10:41;;;;;;;13.38;2.47;;;6.70;99.90;;;;;;5095615;28;20075;-59
2022/02/05 12:13:19;;;;;;;13.48;2.20;;;6.80;99.90;;;;;;5095638;28;20155;-59
2022/02/05 12:15:54;;;;;;;11.65;2.60;;;6.90;99.90;;;;;;5113809;28;20043;-59
2022/02/05 12:18:24;;;;;;;13.38;3.15;;;7.00;99.90;;;;;;5113427;28;20039;-59
2022/02/05 12:20:55;;;;;;;10.05;2.25;;;7.10;99.90;;;;;;5113608;28;20389;-59
2022/02/05 12:26:08;;;;;;;15.18;2.65;;;7.40;99.90;;;;;;5113696;28;20048;-59
2022/02/05 12:28:55;;;;;;;14.82;2.55;;;7.50;99.90;;;;;;5113369;28;20036;-59
2022/02/05 12:31:34;;;;;;;11.65;2.25;;;7.60;99.90;;;;;;5113305;28;20036;-59
2022/02/05 12:34:01;;;;;;;14.68;3.00;;;7.50;99.90;;;;;;5113481;28;20447;-60
2022/02/05 12:36:33;;;;;;;15.57;3.60;;;7.70;99.90;;;;;;5113669;28;20096;-59
2022/02/05 12:39:00;;;;;;;15.10;2.67;;;7.70;99.90;;;;;;5113668;28;20046;-58
2022/02/05 12:41:29;;;;;;;13.13;3.13;;;7.80;99.90;;;;;;5112287;28;20060;-59
2022/02/05 12:43:58;;;;;;;14.10;2.67;;;7.70;99.90;;;;;;5113181;28;20044;-59
2022/02/05 12:46:34;;;;;;;16.45;2.10;;;7.70;99.90;;;;;;5112988;28;20048;-59
2022/02/05 12:49:05;;;;;;;13.95;3.03;;;7.40;99.90;;;;;;5113061;28;20032;-59
2022/02/05 12:51:31;;;;;;;14.07;2.40;;;7.50;99.90;;;;;;5113118;28;20046;-59
2022/02/05 12:54:11;;;;;;;11.35;3.25;;;7.50;99.90;;;;;;5113057;28;20042;-59
2022/02/05 12:56:39;;;;;;;15.73;3.00;;;7.70;99.90;;;;;;5112785;28;20069;-60
2022/02/05 12:59:11;;;;;;;15.48;2.85;;;7.90;99.90;;;;;;5112961;28;20082;-60
2022/02/05 13:01:38;;;;;;;13.88;2.55;;;8.00;99.90;;;;;;5112998;28;20043;-60
2022/02/05 13:04:12;;;;;;;17.40;2.97;;;8.00;99.90;;;;;;5112991;28;20031;-59
2022/02/05 13:06:38;;;;;;;11.57;2.67;;;8.00;99.90;;;;;;5112602;28;20046;-59
2022/02/05 13:09:16;;;;;;;17.55;3.13;;;8.10;99.90;;;;;;5112383;28;20035;-59
2022/02/05 13:11:42;;;;;;;16.15;2.83;;;8.00;99.90;;;;;;5112899;28;20036;-59
2022/02/05 13:14:08;;;;;;;17.80;4.18;;;7.90;99.90;;;;;;5094184;28;20044;-59
2022/02/05 13:16:39;;;;;;;12.02;2.47;;;7.90;99.90;;;;;;5112787;28;20119;-59
2022/02/05 13:19:24;;;;;;;15.48;3.20;;;7.80;99.90;;;;;;5094051;28;20047;-59
2022/02/05 13:28:06;;;;;;;10.00;2.53;;;7.80;99.90;;;;;;5112202;28;20559;-59
2022/02/05 13:36:29;;;;;;;14.18;3.15;;;8.10;99.90;;;;;;5029945;28;20049;-59
2022/02/05 13:41:58;;;;;;;15.45;2.88;;;8.10;99.90;;;;;;5029752;28;20103;-59
2022/02/05 13:44:28;;;;;;;14.68;2.95;;;8.10;99.90;;;;;;5029862;28;20053;-59
2022/02/05 13:47:07;;;;;;;13.57;2.70;;;8.10;99.90;;;;;;5029876;28;20098;-59
2022/02/05 13:49:33;;;;;;;15.30;2.05;;;8.00;99.90;;;;;;5029788;28;20038;-58
2022/02/05 13:52:08;;;;;;;14.75;2.70;;;7.90;99.90;;;;;;5031475;28;20037;-59
2022/02/05 13:54:40;;;;;;;10.55;2.83;;;7.90;99.90;;;;;;5033004;28;20053;-59
2022/02/05 13:57:06;;;;;;;15.27;2.78;;;7.70;99.90;;;;;;5033420;28;20049;-59
2022/02/05 13:59:34;;;;;;;15.43;2.47;;;7.60;99.90;;;;;;5033713;28;20041;-59
2022/02/05 14:02:20;;;;;;;12.70;3.53;;;7.60;99.90;;;;;;5033513;28;20112;-61
2022/02/05 14:05:07;;;;;;;21.23;3.65;;;7.50;99.90;;;;;;5033364;28;20067;-60
2022/02/05 14:07:46;;;;;;;13.95;2.97;;;7.40;99.90;;;;;;5033434;28;20037;-60
2022/02/05 14:10:21;;;;;;;18.30;2.90;;;7.50;99.90;;;;;;5069507;28;20096;-60
2022/02/05 14:12:52;;;;;;;9.32;2.88;;;7.50;99.90;;;;;;5116525;28;20043;-61
2022/02/05 14:15:19;;;;;;;14.45;2.95;;;7.40;99.90;;;;;;5116258;28;20039;-60
2022/02/05 14:17:48;;;;;;;16.50;2.83;;;7.50;99.90;;;;;;5116604;28;20032;-60
2022/02/05 14:20:16;;;;;;;12.13;2.42;;;7.50;99.90;;;;;;5097448;28;20096;-60
2022/02/05 14:22:47;;;;;;;10.13;2.15;;;7.60;99.90;;;;;;5116224;28;20035;-60
2022/02/05 14:25:19;;;;;;;15.73;2.30;;;7.50;99.90;;;;;;5097971;28;20130;-60
2022/02/05 14:28:13;;;;;;;15.63;2.25;;;7.40;99.90;;;;;;5115922;28;20036;-60
2022/02/05 14:30:43;;;;;;;16.75;2.17;;;7.40;99.90;;;;;;5116142;28;20046;-60
2022/02/05 14:33:10;;;;;;;9.32;2.17;;;7.30;99.90;;;;;;5115761;28;20135;-60
2022/02/05 14:40:49;;;;;;;19.90;2.92;;;7.30;99.90;;;;;;5115394;28;20040;-60
2022/02/05 14:43:18;;;;;;;13.07;2.45;;;7.30;99.90;;;;;;5115965;28;20090;-60
2022/02/05 14:45:45;;;;;;;15.70;3.00;;;7.30;99.90;;;;;;5115488;28;20119;-60
2022/02/05 14:48:11;;;;;;;10.63;2.58;;;7.20;99.90;;;;;;5115370;28;20118;-61
2022/02/05 14:50:38;;;;;;;7.53;2.40;;;7.20;99.90;;;;;;5115778;28;20411;-60
2022/02/05 14:53:03;;;;;;;10.43;2.15;;;7.20;99.90;;;;;;5115683;28;20038;-60
2022/02/05 14:55:29;;;;;;;16.58;2.95;;;7.10;99.90;;;;;;5114877;28;20059;-60
2022/02/05 14:57:55;;;;;;;11.02;2.35;;;7.10;99.90;;;;;;5096890;28;20502;-59
2022/02/05 15:00:22;;;;;;;14.43;3.63;;;7.10;99.90;;;;;;5115260;28;20104;-51
2022/02/05 15:02:49;;;;;;;13.15;2.53;;;7.10;99.90;;;;;;5114160;28;20047;-52
2022/02/05 15:05:15;;;;;;;11.57;2.63;;;7.10;99.90;;;;;;5114724;28;20048;-50
2022/02/05 15:07:43;;;;;;;18.35;2.67;;;7.10;99.90;;;;;;5115071;28;20149;-51
2022/02/05 15:10:17;;;;;;;18.08;2.67;;;7.10;99.90;;;;;;5114931;28;20038;-49
2022/02/05 15:12:44;;;;;;;16.38;2.30;;;7.00;99.90;;;;;;5114865;28;20110;-53
2022/02/05 15:15:16;;;;;;;13.48;2.22;;;7.00;99.90;;;;;;5114617;28;20036;-53
2022/02/05 15:17:43;;;;;;;14.57;2.72;;;7.00;99.90;;;;;;5114666;28;20082;-51
2022/02/05 15:20:11;;;;;;;11.52;2.40;;;7.00;99.90;;;;;;5114473;28;20118;-61
2022/02/05 15:22:37;;;;;;;11.10;2.20;;;7.00;99.90;;;;;;5114655;28;20040;-60
2022/02/05 15:25:03;;;;;;;11.07;2.13;;;7.00;99.90;;;;;;5114593;28;20039;-61
2022/02/05 15:27:28;;;;;;;11.27;2.38;;;7.00;99.90;;;;;;5114908;28;20047;-60
2022/02/05 15:29:54;;;;;;;17.10;2.83;;;7.00;99.90;;;;;;5114660;28;20032;-60
2022/02/05 15:32:20;;;;;;;11.00;2.47;;;7.00;99.90;;;;;;5114308;28;20164;-60
2022/02/05 15:34:45;;;;;;;12.18;2.13;;;7.00;99.90;;;;;;5114128;28;20172;-51
2022/02/05 15:37:18;;;;;;;11.45;2.33;;;7.00;99.90;;;;;;5114160;28;20039;-50
2022/02/05 15:40:02;;;;;;;15.57;2.95;;;6.90;99.90;;;;;;5114347;28;20043;-52
2022/02/05 15:45:13;;;;;;;10.43;1.90;;;6.90;99.90;;;;;;5114023;28;20043;-60
2022/02/05 15:47:40;;;;;;;15.98;2.22;;;6.90;99.90;;;;;;5113883;28;20032;-60
2022/02/05 15:50:08;;;;;;;13.45;3.45;;;6.90;99.90;;;;;;5114149;28;20471;-60
2022/02/05 15:52:35;;;;;;;19.60;2.50;;;6.90;99.90;;;;;;5114293;28;20085;-61
2022/02/05 15:55:01;;;;;;;9.93;2.05;;;6.90;99.90;;;;;;5113706;28;20064;-61